Time;durP1;ratioP1;P1;durP2;ratioP2;P2;SDS_P1;SDS_P2;PMS_P1;PMS_P2;Temp;Humidity;BMP_temperature;BMP_pressure;BME280_temperature;BME280_humidity;BME280_pressure;Samples;Min_cycle;Max_cycle;Signal;HPM_P1;HPM_P2
2022/01/04 00:02:21;;;;;;;;;;;9.20;89.90;;;;;;5035479;28;19919;-65
2022/01/04 00:04:46;;;;;;;;;;;9.20;89.40;;;;;;5035427;28;19991;-66
2022/01/04 00:07:12;;;;;;;;;;;9.10;90.20;;;;;;5035044;28;19909;-64
2022/01/04 00:09:41;;;;;;;;;;;9.20;89.70;;;;;;5035445;28;19917;-61
2022/01/04 00:14:52;;;;;;;;;;;9.30;88.90;;;;;;5035129;28;19955;-62
2022/01/04 00:17:18;;;;;;;;;;;9.30;86.80;;;;;;5034943;28;19909;-62
2022/01/04 00:19:43;;;;;;;;;;;9.20;86.80;;;;;;5035102;28;19909;-61
2022/01/04 00:22:09;;;;;;;;;;;9.10;87.50;;;;;;5035226;28;20266;-64
2022/01/04 00:24:35;;;;;;;;;;;9.20;88.70;;;;;;5033989;28;19915;-61
2022/01/04 00:27:01;;;;;;;;;;;9.30;88.80;;;;;;5035050;28;20323;-62
2022/01/04 00:29:26;;;;;;;;;;;9.30;88.70;;;;;;5034780;28;20000;-65
2022/01/04 00:31:52;;;;;;;;;;;9.40;89.00;;;;;;5035052;28;19909;-60
2022/01/04 00:34:17;;;;;;;;;;;9.30;89.00;;;;;;5016701;28;19913;-62
2022/01/04 00:36:43;;;;;;;;;;;9.30;88.90;;;;;;5034692;28;19909;-62
2022/01/04 00:39:09;;;;;;;;;;;9.40;88.40;;;;;;5034683;28;19927;-62
2022/01/04 00:41:34;;;;;;;;;;;9.40;88.40;;;;;;5034528;28;20012;-62
2022/01/04 00:44:00;;;;;;;;;;;9.30;88.50;;;;;;5034607;28;19909;-63
2022/01/04 00:46:26;;;;;;;;;;;9.40;88.40;;;;;;5034651;28;19909;-62
2022/01/04 00:49:10;;;;;;;;;;;9.40;88.40;;;;;;5034333;28;19921;-62
2022/01/04 00:51:43;;;;;;;;;;;9.30;88.90;;;;;;5034617;28;19910;-62
2022/01/04 00:54:09;;;;;;;;;;;9.30;89.20;;;;;;5034561;28;19917;-62
2022/01/04 00:56:34;;;;;;;;;;;9.30;89.40;;;;;;5034477;28;19909;-63
2022/01/04 00:59:00;;;;;;;;;;;9.30;89.50;;;;;;5034172;28;19979;-62
2022/01/04 01:01:26;;;;;;;;;;;9.30;89.50;;;;;;5034118;28;19913;-61
2022/01/04 01:03:52;;;;;;;;;;;9.30;89.60;;;;;;5034687;28;20333;-61
2022/01/04 01:06:17;;;;;;;;;;;9.30;89.40;;;;;;5034003;28;20012;-61
2022/01/04 01:08:43;;;;;;;;;;;9.20;89.50;;;;;;5034207;28;19964;-61
2022/01/04 01:11:09;;;;;;;;;;;9.20;89.60;;;;;;5033961;28;20331;-61
2022/01/04 01:13:35;;;;;;;;;;;9.30;89.40;;;;;;5016228;28;19909;-63
2022/01/04 01:16:01;;;;;;;;;;;9.40;88.60;;;;;;5034049;28;19959;-63
2022/01/04 01:18:26;;;;;;;;;;;9.40;88.00;;;;;;5033896;28;20272;-63
2022/01/04 01:20:52;;;;;;;;;;;9.40;88.30;;;;;;5034051;28;19924;-62
2022/01/04 01:23:18;;;;;;;;;;;9.30;88.90;;;;;;5033780;28;20245;-61
2022/01/04 01:25:44;;;;;;;;;;;9.30;88.80;;;;;;5033930;28;19909;-61
2022/01/04 01:28:10;;;;;;;;;;;9.30;88.60;;;;;;5033847;28;19917;-62
2022/01/04 01:30:38;;;;;;;;;;;9.30;89.00;;;;;;5033675;28;20285;-63
2022/01/04 01:33:04;;;;;;;;;;;9.20;89.00;;;;;;5033842;28;19916;-63
2022/01/04 01:35:30;;;;;;;;;;;9.30;89.10;;;;;;5033554;28;19995;-61
2022/01/04 01:37:57;;;;;;;;;;;9.30;88.50;;;;;;5033688;28;19956;-61
2022/01/04 01:40:23;;;;;;;;;;;9.30;89.00;;;;;;5033753;28;19924;-62
2022/01/04 01:42:48;;;;;;;;;;;9.30;89.20;;;;;;5033483;28;19913;-61
2022/01/04 01:45:16;;;;;;;;;;;9.20;89.30;;;;;;5033462;28;20380;-61
2022/01/04 01:47:42;;;;;;;;;;;9.20;89.70;;;;;;5033271;28;19931;-62
2022/01/04 01:50:09;;;;;;;;;;;9.30;89.50;;;;;;5033688;28;20343;-63
2022/01/04 01:52:35;;;;;;;;;;;9.30;89.10;;;;;;5033581;28;19909;-63
2022/01/04 01:55:01;;;;;;;;;;;9.30;88.70;;;;;;5033215;28;19913;-61
2022/01/04 01:57:26;;;;;;;;;;;9.30;89.00;;;;;;5033503;28;19909;-64
2022/01/04 01:59:52;;;;;;;;;;;9.30;89.30;;;;;;5033456;28;20327;-60
2022/01/04 02:02:17;;;;;;;;;;;9.20;89.60;;;;;;5033336;28;19920;-63
2022/01/04 02:04:43;;;;;;;;;;;9.30;88.70;;;;;;5033226;28;20261;-62
2022/01/04 02:07:10;;;;;;;;;;;9.30;88.80;;;;;;5033181;28;20269;-62
2022/01/04 02:09:39;;;;;;;;;;;9.30;87.70;;;;;;5033374;28;19913;-64
2022/01/04 02:12:05;;;;;;;;;;;9.30;87.70;;;;;;5033029;28;19991;-64
2022/01/04 02:14:31;;;;;;;;;;;9.30;88.40;;;;;;5033168;28;19971;-63
2022/01/04 02:16:56;;;;;;;;;;;9.30;88.30;;;;;;5033520;28;19948;-63
2022/01/04 02:19:22;;;;;;;;;;;9.30;88.70;;;;;;5033387;28;20023;-63
2022/01/04 02:21:47;;;;;;;;;;;9.30;88.70;;;;;;5033326;28;20318;-63
2022/01/04 02:24:13;;;;;;;;;;;9.20;89.00;;;;;;5033024;28;20380;-65
2022/01/04 02:26:39;;;;;;;;;;;9.20;89.00;;;;;;5032883;28;19913;-62
2022/01/04 02:29:07;;;;;;;;;;;9.30;89.00;;;;;;5033118;28;19921;-64
2022/01/04 02:31:32;;;;;;;;;;;9.20;89.00;;;;;;5032981;28;19964;-63
2022/01/04 02:33:58;;;;;;;;;;;9.20;89.60;;;;;;5033166;28;20284;-66
2022/01/04 02:36:23;;;;;;;;;;;9.20;89.90;;;;;;5033357;28;19913;-62
2022/01/04 02:38:52;;;;;;;;;;;9.10;89.60;;;;;;5033006;28;19921;-67
2022/01/04 02:41:18;;;;;;;;;;;9.20;89.80;;;;;;5032862;28;20320;-69
2022/01/04 02:43:44;;;;;;;;;;;9.10;89.80;;;;;;5032902;28;19909;-65
2022/01/04 02:46:09;;;;;;;;;;;9.20;89.90;;;;;;5033109;28;19909;-62
2022/01/04 02:48:44;;;;;;;;;;;9.20;89.90;;;;;;5035892;28;19917;-62
2022/01/04 02:51:11;;;;;;;;;;;9.20;89.70;;;;;;5036882;28;19916;-62
2022/01/04 02:53:36;;;;;;;;;;;9.20;89.70;;;;;;5019062;28;19924;-64
2022/01/04 02:56:02;;;;;;;;;;;9.20;89.90;;;;;;5036531;28;19913;-65
2022/01/04 02:58:27;;;;;;;;;;;9.20;89.90;;;;;;5036758;28;19913;-63
2022/01/04 03:00:53;;;;;;;;;;;9.20;90.00;;;;;;5036763;28;20331;-65
2022/01/04 03:03:19;;;;;;;;;;;9.20;90.00;;;;;;5036446;28;19913;-68
2022/01/04 03:05:44;;;;;;;;;;;9.20;90.00;;;;;;5036594;28;19909;-68
2022/01/04 03:08:10;;;;;;;;;;;9.20;90.00;;;;;;5036348;28;19924;-67
2022/01/04 03:10:35;;;;;;;;;;;9.20;90.00;;;;;;5036391;28;19978;-62
2022/01/04 03:13:02;;;;;;;;;;;9.20;89.90;;;;;;5036459;28;19916;-62
2022/01/04 03:15:28;;;;;;;;;;;9.20;89.60;;;;;;5036236;28;19924;-65
2022/01/04 03:17:54;;;;;;;;;;;9.20;89.90;;;;;;5036460;28;20284;-64
2022/01/04 03:20:19;;;;;;;;;;;9.20;89.90;;;;;;5036293;28;19909;-64
2022/01/04 03:22:45;;;;;;;;;;;9.20;89.90;;;;;;5036469;28;19916;-66
2022/01/04 03:25:11;;;;;;;;;;;9.00;90.10;;;;;;5036108;28;19916;-63
2022/01/04 03:27:37;;;;;;;;;;;9.00;90.10;;;;;;5035906;28;20357;-71
2022/01/04 03:30:04;;;;;;;;;;;9.10;90.10;;;;;;5036394;28;19917;-63
2022/01/04 03:32:29;;;;;;;;;;;9.10;90.00;;;;;;5036220;28;19909;-61
2022/01/04 03:34:55;;;;;;;;;;;9.10;89.80;;;;;;5036160;28;19932;-65
2022/01/04 03:37:21;;;;;;;;;;;9.10;89.70;;;;;;5035887;28;19952;-63
2022/01/04 03:39:46;;;;;;;;;;;9.20;89.70;;;;;;5035673;28;19939;-66
2022/01/04 03:42:12;;;;;;;;;;;9.10;90.00;;;;;;5036143;28;20417;-63
2022/01/04 03:44:37;;;;;;;;;;;9.20;89.70;;;;;;5035914;28;20372;-67
2022/01/04 03:47:03;;;;;;;;;;;9.20;89.40;;;;;;5035707;28;19920;-67
2022/01/04 03:49:29;;;;;;;;;;;9.20;89.20;;;;;;5035730;28;19917;-65
2022/01/04 03:51:55;;;;;;;;;;;9.20;89.10;;;;;;5017839;28;19913;-64
2022/01/04 03:54:22;;;;;;;;;;;9.20;88.80;;;;;;5035441;28;20026;-67
2022/01/04 03:56:48;;;;;;;;;;;9.20;88.80;;;;;;5035588;28;19913;-65
2022/01/04 03:59:14;;;;;;;;;;;9.20;89.50;;;;;;5034116;28;20047;-69
2022/01/04 04:01:40;;;;;;;;;;;9.10;89.90;;;;;;5035448;28;19955;-68
2022/01/04 04:04:05;;;;;;;;;;;9.20;90.00;;;;;;5035319;28;19909;-66
2022/01/04 04:06:31;;;;;;;;;;;9.20;89.50;;;;;;5035496;28;19913;-69
2022/01/04 04:08:57;;;;;;;;;;;9.20;89.50;;;;;;5035143;28;19969;-67
2022/01/04 04:11:23;;;;;;;;;;;9.20;89.30;;;;;;5035196;28;20390;-67
2022/01/04 04:13:49;;;;;;;;;;;9.20;89.20;;;;;;5035323;28;19959;-68
2022/01/04 04:16:14;;;;;;;;;;;9.20;88.60;;;;;;5017380;28;20360;-68
2022/01/04 04:18:40;;;;;;;;;;;9.30;88.30;;;;;;5035368;28;19909;-65
2022/01/04 04:21:05;;;;;;;;;;;9.00;89.40;;;;;;5035258;28;19910;-67
2022/01/04 04:23:31;;;;;;;;;;;9.00;90.00;;;;;;5034895;28;20000;-69
2022/01/04 04:25:57;;;;;;;;;;;9.10;89.90;;;;;;5035102;28;19909;-69
2022/01/04 04:28:22;;;;;;;;;;;9.10;89.70;;;;;;5035222;28;19923;-65
2022/01/04 04:30:48;;;;;;;;;;;9.10;89.70;;;;;;5034832;28;19915;-70
2022/01/04 04:33:13;;;;;;;;;;;9.10;89.60;;;;;;5034931;28;19996;-65
2022/01/04 04:35:39;;;;;;;;;;;9.20;89.50;;;;;;5034827;28;19909;-66
2022/01/04 04:38:06;;;;;;;;;;;9.20;90.00;;;;;;5034660;28;19921;-67
2022/01/04 04:40:34;;;;;;;;;;;9.10;89.70;;;;;;5034024;28;20467;-70
2022/01/04 04:43:00;;;;;;;;;;;9.10;89.30;;;;;;5034685;28;19913;-70
2022/01/04 04:45:25;;;;;;;;;;;9.20;89.20;;;;;;5034721;28;19928;-66
2022/01/04 04:47:51;;;;;;;;;;;9.20;89.00;;;;;;5034458;28;19924;-70
2022/01/04 04:50:17;;;;;;;;;;;9.20;88.90;;;;;;5034673;28;20007;-64
2022/01/04 04:52:42;;;;;;;;;;;9.10;89.10;;;;;;5034482;28;19959;-66
2022/01/04 04:55:08;;;;;;;;;;;9.20;89.70;;;;;;5034361;28;19937;-65
2022/01/04 04:57:34;;;;;;;;;;;9.10;89.70;;;;;;5034342;28;19909;-65
2022/01/04 04:59:59;;;;;;;;;;;9.10;89.90;;;;;;5034415;28;19949;-67
2022/01/04 05:02:25;;;;;;;;;;;9.10;89.70;;;;;;5034426;28;19915;-67
2022/01/04 05:04:50;;;;;;;;;;;9.10;89.70;;;;;;5034132;28;19948;-67
2022/01/04 05:07:16;;;;;;;;;;;9.10;89.70;;;;;;5034100;28;19910;-71
2022/01/04 05:09:41;;;;;;;;;;;9.10;89.70;;;;;;5034106;28;20008;-67
2022/01/04 05:12:07;;;;;;;;;;;9.10;89.80;;;;;;5034225;28;19913;-71
2022/01/04 05:14:33;;;;;;;;;;;9.20;89.80;;;;;;5034067;28;20388;-68
2022/01/04 05:16:58;;;;;;;;;;;9.20;89.80;;;;;;5034803;28;19909;-61
2022/01/04 05:19:24;;;;;;;;;;;9.20;89.80;;;;;;5034993;28;19909;-68
2022/01/04 05:21:50;;;;;;;;;;;9.10;89.40;;;;;;5034735;28;20419;-65
2022/01/04 05:24:15;;;;;;;;;;;9.20;89.50;;;;;;5034906;28;19916;-67
2022/01/04 05:26:41;;;;;;;;;;;9.20;89.70;;;;;;5034378;28;19909;-65
2022/01/04 05:29:06;;;;;;;;;;;9.20;89.40;;;;;;5033877;28;19917;-65
2022/01/04 05:31:32;;;;;;;;;;;9.20;89.20;;;;;;5033721;28;19910;-63
2022/01/04 05:33:57;;;;;;;;;;;9.30;88.30;;;;;;5033757;28;20337;-61
2022/01/04 05:36:23;;;;;;;;;;;9.20;88.80;;;;;;5033577;28;19979;-62
2022/01/04 05:38:49;;;;;;;;;;;9.10;89.40;;;;;;5033539;28;19956;-63
2022/01/04 05:41:15;;;;;;;;;;;9.20;89.70;;;;;;5033584;28;20439;-63
2022/01/04 05:43:40;;;;;;;;;;;9.20;89.40;;;;;;5033644;28;19909;-62
2022/01/04 05:46:06;;;;;;;;;;;9.20;89.30;;;;;;5033621;28;19916;-63
2022/01/04 05:48:31;;;;;;;;;;;9.20;89.20;;;;;;5033519;28;19917;-64
2022/01/04 05:50:57;;;;;;;;;;;9.20;89.40;;;;;;5033272;28;19909;-62
2022/01/04 05:53:22;;;;;;;;;;;9.20;89.20;;;;;;5033332;28;19962;-62
2022/01/04 05:55:48;;;;;;;;;;;9.20;89.20;;;;;;5033744;28;19913;-64
2022/01/04 05:58:14;;;;;;;;;;;9.20;89.50;;;;;;5033581;28;20361;-63
2022/01/04 06:00:39;;;;;;;;;;;9.20;89.60;;;;;;5033438;28;19909;-61
2022/01/04 06:03:05;;;;;;;;;;;9.30;90.00;;;;;;5015596;28;19909;-66
2022/01/04 06:05:31;;;;;;;;;;;9.30;89.40;;;;;;5033301;28;19910;-64
2022/01/04 06:07:56;;;;;;;;;;;9.30;88.90;;;;;;5033394;28;20380;-62
2022/01/04 06:10:22;;;;;;;;;;;9.30;88.70;;;;;;5033124;28;19910;-63
2022/01/04 06:15:16;;;;;;;;;;;9.20;88.10;;;;;;5033186;28;19952;-62
2022/01/04 06:17:47;;;;;;;;;;;9.10;88.70;;;;;;5033176;28;20375;-63
2022/01/04 06:20:14;;;;;;;;;;;9.20;88.90;;;;;;5033065;28;19909;-62
2022/01/04 06:22:39;;;;;;;;;;;9.20;89.10;;;;;;5034744;28;19909;-62
2022/01/04 06:25:06;;;;;;;;;;;9.20;89.40;;;;;;5037293;28;19909;-62
2022/01/04 06:27:32;;;;;;;;;;;9.20;89.30;;;;;;5036927;28;20012;-62
2022/01/04 06:29:58;;;;;;;;;;;9.20;89.40;;;;;;5037284;28;20359;-61
2022/01/04 06:32:23;;;;;;;;;;;9.20;89.40;;;;;;5037266;28;19910;-62
2022/01/04 06:34:49;;;;;;;;;;;9.20;89.70;;;;;;5036889;28;19916;-66
2022/01/04 06:37:15;;;;;;;;;;;9.30;90.20;;;;;;5036248;28;19912;-61
2022/01/04 06:39:41;;;;;;;;;;;9.50;89.40;;;;;;5036795;28;19926;-58
2022/01/04 06:42:07;;;;;;;;;;;9.50;88.60;;;;;;5037001;28;19963;-59
2022/01/04 06:44:33;;;;;;;;;;;9.60;88.10;;;;;;5055098;28;19909;-64
2022/01/04 06:46:59;;;;;;;;;;;9.60;87.60;;;;;;5038100;28;19913;-59
2022/01/04 06:49:24;;;;;;;;;;;9.70;87.80;;;;;;5055890;28;19916;-58
2022/01/04 06:51:50;;;;;;;;;;;9.80;87.40;;;;;;5056018;28;19915;-56
2022/01/04 06:54:17;;;;;;;;;;;9.80;87.40;;;;;;5072235;28;19997;-60
2022/01/04 06:56:43;;;;;;;;;;;9.80;86.90;;;;;;5075658;28;19909;-59
2022/01/04 06:59:08;;;;;;;;;;;9.80;86.80;;;;;;5075601;28;20360;-59
2022/01/04 07:01:34;;;;;;;;;;;9.80;87.00;;;;;;5076533;28;19916;-61
2022/01/04 07:04:00;;;;;;;;;;;9.90;86.80;;;;;;5058298;28;19928;-62
2022/01/04 07:06:26;;;;;;;;;;;9.70;86.90;;;;;;5076240;28;19935;-62
2022/01/04 07:08:51;;;;;;;;;;;9.70;87.20;;;;;;5076342;28;19916;-60
2022/01/04 07:11:17;;;;;;;;;;;9.70;87.70;;;;;;5076121;28;19909;-59
2022/01/04 07:13:43;;;;;;;;;;;9.50;88.10;;;;;;5076238;28;19918;-65
2022/01/04 07:16:08;;;;;;;;;;;9.50;88.50;;;;;;5067359;28;19913;-61
2022/01/04 07:18:34;;;;;;;;;;;9.50;88.50;;;;;;5055420;28;19912;-61
2022/01/04 07:20:59;;;;;;;;;;;9.50;89.00;;;;;;5055489;28;19909;-63
2022/01/04 07:23:25;;;;;;;;;;;9.40;89.00;;;;;;5055122;28;19951;-65
2022/01/04 07:25:51;;;;;;;;;;;9.40;89.10;;;;;;5056170;28;19916;-63
2022/01/04 07:28:17;;;;;;;;;;;9.40;89.20;;;;;;5057543;28;19923;-64
2022/01/04 07:30:43;;;;;;;;;;;9.40;89.40;;;;;;5059518;28;19909;-65
2022/01/04 07:33:09;;;;;;;;;;;9.40;89.40;;;;;;5058306;28;20373;-65
2022/01/04 07:35:34;;;;;;;;;;;9.40;89.50;;;;;;5055366;28;19924;-65
2022/01/04 07:38:00;;;;;;;;;;;9.40;89.60;;;;;;5054828;28;20032;-62
2022/01/04 07:40:25;;;;;;;;;;;9.30;89.60;;;;;;5054992;28;19917;-65
2022/01/04 07:42:51;;;;;;;;;;;9.30;89.80;;;;;;5054748;28;20012;-63
2022/01/04 07:45:17;;;;;;;;;;;9.30;89.70;;;;;;5055069;28;19908;-65
2022/01/04 07:47:42;;;;;;;;;;;9.40;89.80;;;;;;5055293;28;19920;-65
2022/01/04 07:50:09;;;;;;;;;;;9.40;89.70;;;;;;5055442;28;20427;-64
2022/01/04 07:52:35;;;;;;;;;;;9.40;89.70;;;;;;5055499;28;20372;-63
2022/01/04 07:55:00;;;;;;;;;;;9.40;89.50;;;;;;5055140;28;19955;-63
2022/01/04 07:57:26;;;;;;;;;;;9.40;89.10;;;;;;5055405;28;19948;-63
2022/01/04 07:59:51;;;;;;;;;;;9.40;89.00;;;;;;5055619;28;19916;-66
2022/01/04 08:02:17;;;;;;;;;;;9.40;89.10;;;;;;5054385;28;20475;-60
2022/01/04 08:04:43;;;;;;;;;;;9.40;89.10;;;;;;5074181;28;19909;-61
2022/01/04 08:07:08;;;;;;;;;;;9.40;89.20;;;;;;5075268;28;19912;-65
2022/01/04 08:09:34;;;;;;;;;;;9.50;89.40;;;;;;5073974;28;19917;-64
2022/01/04 08:11:59;;;;;;;;;;;9.50;89.00;;;;;;5064478;28;19909;-61
2022/01/04 08:14:25;;;;;;;;;;;9.60;88.80;;;;;;5055375;28;20356;-61
2022/01/04 08:16:51;;;;;;;;;;;9.60;88.50;;;;;;5054988;28;20420;-63
2022/01/04 08:19:16;;;;;;;;;;;9.70;87.90;;;;;;5036970;28;19916;-62
2022/01/04 08:21:42;;;;;;;;;;;9.70;87.00;;;;;;5054820;28;19970;-62
2022/01/04 08:24:07;;;;;;;;;;;9.60;87.80;;;;;;5054372;28;19919;-64
2022/01/04 08:26:33;;;;;;;;;;;9.60;88.50;;;;;;5036131;28;19921;-62
2022/01/04 08:28:59;;;;;;;;;;;9.80;89.60;;;;;;5053967;28;19923;-65
2022/01/04 08:31:24;;;;;;;;;;;9.80;88.60;;;;;;5054001;28;19963;-62
2022/01/04 08:33:51;;;;;;;;;;;9.70;88.90;;;;;;5053527;28;20323;-64
2022/01/04 08:36:16;;;;;;;;;;;9.70;89.60;;;;;;5053991;28;20376;-65
2022/01/04 08:38:43;;;;;;;;;;;9.70;89.30;;;;;;5053497;28;19975;-62
2022/01/04 08:41:09;;;;;;;;;;;9.60;89.30;;;;;;5053894;28;19954;-69
2022/01/04 08:43:35;;;;;;;;;;;9.60;89.40;;;;;;5053462;28;20007;-69
2022/01/04 08:46:00;;;;;;;;;;;9.60;90.00;;;;;;5052878;28;19979;-65
2022/01/04 08:48:26;;;;;;;;;;;9.50;90.00;;;;;;5053676;28;19913;-65
2022/01/04 08:50:51;;;;;;;;;;;9.60;90.00;;;;;;5053724;28;19908;-67
2022/01/04 08:53:17;;;;;;;;;;;9.60;90.10;;;;;;5053426;28;19917;-65
2022/01/04 08:55:42;;;;;;;;;;;9.60;90.00;;;;;;5053670;28;20360;-66
2022/01/04 08:58:08;;;;;;;;;;;9.60;89.90;;;;;;5053951;28;19913;-67
2022/01/04 09:00:34;;;;;;;;;;;9.60;89.80;;;;;;5054161;28;20390;-66
2022/01/04 09:03:00;;;;;;;;;;;9.60;89.90;;;;;;5054228;28;19909;-70
2022/01/04 09:05:26;;;;;;;;;;;9.60;89.80;;;;;;5054114;28;20273;-66
2022/01/04 09:07:51;;;;;;;;;;;9.70;90.00;;;;;;5053093;28;19924;-69
2022/01/04 09:10:17;;;;;;;;;;;9.70;90.00;;;;;;5052974;28;20334;-65
2022/01/04 09:15:46;;;;;;;;;;;9.70;90.00;;;;;;5053241;28;19999;-68
2022/01/04 09:20:48;;;;;;;;;;;9.60;90.20;;;;;;5053886;28;19922;-64
2022/01/04 09:23:18;;;;;;;;;;;9.60;90.30;;;;;;5053756;28;19909;-64
2022/01/04 09:25:44;;;;;;;;;;;9.70;90.20;;;;;;5053525;28;19947;-63
2022/01/04 09:28:10;;;;;;;;;;;9.60;90.10;;;;;;5035755;28;19919;-63
2022/01/04 09:30:35;;;;;;;;;;;9.40;90.30;;;;;;5035755;28;19908;-64
2022/01/04 09:33:02;;;;;;;;;;;9.40;90.60;;;;;;5053756;28;19920;-65
2022/01/04 09:35:28;;;;;;;;;;;9.30;90.70;;;;;;5053653;28;19913;-64
2022/01/04 09:37:53;;;;;;;;;;;9.20;91.20;;;;;;5053381;28;19917;-61
2022/01/04 09:40:19;;;;;;;;;;;9.20;91.10;;;;;;5053071;28;19925;-63
2022/01/04 09:42:47;;;;;;;;;;;9.40;91.00;;;;;;5053655;28;19909;-65
2022/01/04 09:45:15;;;;;;;;;;;9.50;90.70;;;;;;5053391;28;19936;-61
2022/01/04 09:47:40;;;;;;;;;;;9.50;90.40;;;;;;5053584;28;19916;-66
2022/01/04 09:50:10;;;;;;;;;;;9.60;90.40;;;;;;5053314;28;19912;-65
2022/01/04 09:52:38;;;;;;;;;;;9.70;90.50;;;;;;5052916;28;19908;-61
2022/01/04 09:55:04;;;;;;;;;;;9.70;90.40;;;;;;5052705;28;20278;-65
2022/01/04 09:57:30;;;;;;;;;;;9.60;90.30;;;;;;5053277;28;19908;-69
2022/01/04 09:59:55;;;;;;;;;;;9.60;90.20;;;;;;5053498;28;19947;-68
2022/01/04 10:02:21;;;;;;;;;;;9.60;90.30;;;;;;5053262;28;19909;-63
2022/01/04 10:04:47;;;;;;;;;;;9.50;90.30;;;;;;5053143;28;19916;-64
2022/01/04 10:07:12;;;;;;;;;;;9.60;90.30;;;;;;5053105;28;19952;-64
2022/01/04 10:09:42;;;;;;;;;;;9.50;90.00;;;;;;5053238;28;19916;-68
2022/01/04 10:12:10;;;;;;;;;;;9.50;90.20;;;;;;5053099;28;19938;-66
2022/01/04 10:14:41;;;;;;;;;;;9.40;90.30;;;;;;5053005;28;19909;-65
2022/01/04 10:17:09;;;;;;;;;;;9.40;90.50;;;;;;5053269;28;19909;-63
2022/01/04 10:19:36;;;;;;;;;;;9.40;90.40;;;;;;5052957;28;19932;-64
2022/01/04 10:22:15;;;;;;;;;;;9.50;90.40;;;;;;5053332;28;19908;-63
2022/01/04 10:24:42;;;;;;;;;;;9.60;90.20;;;;;;5052996;28;19909;-63
2022/01/04 10:27:27;;;;;;;;;;;9.70;90.20;;;;;;5053249;28;19919;-62
2022/01/04 10:30:11;;;;;;;;;;;9.70;90.00;;;;;;5052733;28;19917;-62
2022/01/04 10:32:55;;;;;;;;;;;9.70;90.00;;;;;;5053000;28;19913;-60
2022/01/04 10:35:24;;;;;;;;;;;9.70;89.80;;;;;;5052974;28;19960;-60
2022/01/04 10:37:50;;;;;;;;;;;9.70;89.40;;;;;;5052709;28;19924;-61
2022/01/04 10:40:16;;;;;;;;;;;9.60;90.00;;;;;;5052847;28;19913;-62
2022/01/04 10:42:42;;;;;;;;;;;9.60;90.20;;;;;;5053081;28;19916;-59
2022/01/04 10:45:23;;;;;;;;;;;9.60;90.20;;;;;;5052788;28;20054;-60
2022/01/04 10:47:48;;;;;;;;;;;9.70;90.20;;;;;;5052887;28;19964;-60
2022/01/04 10:50:27;;;;;;;;;;;9.70;90.30;;;;;;5052799;28;20704;-61
2022/01/04 10:52:53;;;;;;;;;;;9.60;90.30;;;;;;5055618;28;19908;-61
2022/01/04 10:55:18;;;;;;;;;;;9.70;90.10;;;;;;5053398;28;19920;-62
2022/01/04 10:57:44;;;;;;;;;;;9.60;90.10;;;;;;5052789;28;19909;-61
2022/01/04 11:00:16;;;;;;;;;;;9.50;90.80;;;;;;5052845;28;19996;-61
2022/01/04 11:02:41;;;;;;;;;;;9.60;90.60;;;;;;5052859;28;19931;-61
2022/01/04 11:05:11;;;;;;;;;;;9.60;90.50;;;;;;5052638;28;19973;-61
2022/01/04 11:07:36;;;;;;;;;;;9.60;90.50;;;;;;5052344;28;20449;-62
2022/01/04 11:10:02;;;;;;;;;;;9.50;90.90;;;;;;5056265;28;19992;-67
2022/01/04 11:12:28;;;;;;;;;;;9.40;90.80;;;;;;5056163;28;20096;-62
2022/01/04 11:14:53;;;;;;;;;;;9.40;90.80;;;;;;5056261;28;19959;-61
2022/01/04 11:17:19;;;;;;;;;;;9.20;91.10;;;;;;5056237;28;19913;-61
2022/01/04 11:19:44;;;;;;;;;;;9.30;91.30;;;;;;5056191;28;20000;-62
2022/01/04 11:22:10;;;;;;;;;;;9.20;91.20;;;;;;5056197;28;19908;-60
2022/01/04 11:24:36;;;;;;;;;;;9.30;91.00;;;;;;5055763;28;19909;-63
2022/01/04 11:27:02;;;;;;;;;;;9.40;90.90;;;;;;5057404;28;19909;-66
2022/01/04 11:29:28;;;;;;;;;;;9.50;90.60;;;;;;5059118;28;19917;-66
2022/01/04 11:31:59;;;;;;;;;;;9.70;90.30;;;;;;5059599;28;19909;-64
2022/01/04 11:34:30;;;;;;;;;;;9.80;90.00;;;;;;5056211;28;20370;-70
2022/01/04 11:36:56;;;;;;;;;;;9.80;90.20;;;;;;5055592;28;19923;-61
2022/01/04 11:39:35;;;;;;;;;;;9.80;90.10;;;;;;5054753;28;19925;-62
2022/01/04 11:42:10;;;;;;;;;;;9.80;90.00;;;;;;5054954;28;19920;-63
2022/01/04 11:44:48;;;;;;;;;;;9.60;90.20;;;;;;5055049;28;19913;-62
2022/01/04 11:47:15;;;;;;;;;;;9.60;90.70;;;;;;5054042;28;19913;-62
2022/01/04 11:50:00;;;;;;;;;;;9.70;90.60;;;;;;5037522;28;19939;-62
2022/01/04 11:52:46;;;;;;;;;;;9.80;90.60;;;;;;5055376;28;19955;-62
2022/01/04 11:55:21;;;;;;;;;;;9.90;90.50;;;;;;5055321;28;19909;-62
2022/01/04 11:57:48;;;;;;;;;;;9.90;90.30;;;;;;5055544;28;19951;-61
2022/01/04 12:00:22;;;;;;;;;;;10.00;90.00;;;;;;5055487;28;19978;-63
2022/01/04 12:03:00;;;;;;;;;;;9.90;89.70;;;;;;5055492;28;19912;-63
2022/01/04 12:05:26;;;;;;;;;;;9.90;90.20;;;;;;5055449;28;19931;-64
2022/01/04 12:07:52;;;;;;;;;;;9.90;90.20;;;;;;5050923;28;20383;-61
2022/01/04 12:10:17;;;;;;;;;;;9.90;89.80;;;;;;5054694;28;19913;-65
2022/01/04 12:12:59;;;;;;;;;;;9.90;90.10;;;;;;5056500;28;19908;-67
2022/01/04 12:15:34;;;;;;;;;;;9.90;90.20;;;;;;5055516;28;19909;-65
2022/01/04 12:18:06;;;;;;;;;;;9.90;90.10;;;;;;5050889;28;20281;-71
2022/01/04 12:20:40;;;;;;;;;;;9.90;90.10;;;;;;5049206;28;19909;-70
2022/01/04 12:23:24;;;;;;;;;;;10.00;90.10;;;;;;5034827;28;19909;-65
2022/01/04 12:26:02;;;;;;;;;;;9.90;90.10;;;;;;5034659;28;19909;-65
2022/01/04 12:28:28;;;;;;;;;;;9.90;90.20;;;;;;5034631;28;19924;-69
2022/01/04 12:31:12;;;;;;;;;;;9.90;90.20;;;;;;5034480;28;19909;-71
2022/01/04 12:33:39;;;;;;;;;;;9.90;90.20;;;;;;5034575;28;20026;-68
2022/01/04 12:36:04;;;;;;;;;;;9.90;90.10;;;;;;5034582;28;20266;-64
2022/01/04 12:38:32;;;;;;;;;;;10.00;90.00;;;;;;5034257;28;19928;-65
2022/01/04 12:40:58;;;;;;;;;;;9.90;90.00;;;;;;5034445;28;19910;-67
2022/01/04 12:43:24;;;;;;;;;;;9.90;89.90;;;;;;5034420;28;20356;-72
2022/01/04 12:45:56;;;;;;;;;;;9.80;90.10;;;;;;5034473;28;20385;-65
2022/01/04 12:48:41;;;;;;;;;;;9.80;90.20;;;;;;5034253;28;19983;-69
2022/01/04 12:51:24;;;;;;;;;;;9.80;90.30;;;;;;5034155;28;19916;-66
2022/01/04 12:53:50;;;;;;;;;;;10.00;89.70;;;;;;5034048;28;19916;-65
2022/01/04 12:56:15;;;;;;;;;;;9.90;89.40;;;;;;5033966;28;19913;-66
2022/01/04 12:58:42;;;;;;;;;;;9.90;90.00;;;;;;5034325;28;19913;-64
2022/01/04 13:01:07;;;;;;;;;;;9.90;89.30;;;;;;5034171;28;19909;-66
2022/01/04 13:03:33;;;;;;;;;;;9.90;89.40;;;;;;5033910;28;19936;-69
2022/01/04 13:06:04;;;;;;;;;;;9.90;89.70;;;;;;5034109;28;19920;-63
2022/01/04 13:08:33;;;;;;;;;;;10.00;89.60;;;;;;5033857;28;19913;-69
2022/01/04 13:11:03;;;;;;;;;;;10.00;89.70;;;;;;5034034;28;19913;-69
2022/01/04 13:13:30;;;;;;;;;;;9.90;89.80;;;;;;5033656;28;19952;-67
2022/01/04 13:16:15;;;;;;;;;;;9.90;90.10;;;;;;5033838;28;19909;-67
2022/01/04 13:18:41;;;;;;;;;;;10.00;90.20;;;;;;5019593;28;19964;-68
2022/01/04 13:21:07;;;;;;;;;;;9.90;90.40;;;;;;5016308;28;19953;-68
2022/01/04 13:23:36;;;;;;;;;;;9.80;90.80;;;;;;5033658;28;19916;-67
2022/01/04 13:26:02;;;;;;;;;;;9.90;90.80;;;;;;5033734;28;20369;-68
2022/01/04 13:28:27;;;;;;;;;;;10.00;90.60;;;;;;5033596;28;19923;-66
2022/01/04 13:30:53;;;;;;;;;;;10.10;90.50;;;;;;5033287;28;19916;-66
2022/01/04 13:33:22;;;;;;;;;;;10.10;90.50;;;;;;5033684;28;19913;-68
2022/01/04 13:35:48;;;;;;;;;;;10.00;90.40;;;;;;5033541;28;19994;-68
2022/01/04 13:38:19;;;;;;;;;;;9.80;90.50;;;;;;5033757;28;20228;-67
2022/01/04 13:40:45;;;;;;;;;;;9.90;90.80;;;;;;5056301;28;19913;-65
2022/01/04 13:43:12;;;;;;;;;;;9.90;90.70;;;;;;5072592;28;19951;-64
2022/01/04 13:45:48;;;;;;;;;;;9.90;90.40;;;;;;5072266;28;20386;-63
2022/01/04 13:48:20;;;;;;;;;;;10.00;90.30;;;;;;5073056;28;19959;-62
2022/01/04 13:50:46;;;;;;;;;;;10.00;90.20;;;;;;5073269;28;19908;-63
2022/01/04 13:53:12;;;;;;;;;;;9.90;90.00;;;;;;5073094;28;20318;-61
2022/01/04 13:55:45;;;;;;;;;;;9.90;90.30;;;;;;5047134;28;19917;-60
2022/01/04 13:58:11;;;;;;;;;;;9.90;90.40;;;;;;5033087;28;19959;-61
2022/01/04 14:00:38;;;;;;;;;;;9.90;90.40;;;;;;5033200;28;19963;-64
2022/01/04 14:03:22;;;;;;;;;;;9.90;90.30;;;;;;5033029;28;20361;-63
2022/01/04 14:05:48;;;;;;;;;;;9.90;90.30;;;;;;5040499;28;19967;-64
2022/01/04 14:08:13;;;;;;;;;;;9.90;90.30;;;;;;5052618;28;19913;-67
2022/01/04 14:10:46;;;;;;;;;;;9.90;90.30;;;;;;5052302;28;20253;-64
2022/01/04 14:13:33;;;;;;;;;;;9.90;90.20;;;;;;5052557;28;20356;-65
2022/01/04 14:16:05;;;;;;;;;;;10.00;90.30;;;;;;5051718;28;20288;-65
2022/01/04 14:18:30;;;;;;;;;;;10.10;90.20;;;;;;5050463;28;19909;-67
2022/01/04 14:20:56;;;;;;;;;;;10.00;90.30;;;;;;5058170;28;20276;-64
2022/01/04 14:23:35;;;;;;;;;;;10.00;90.20;;;;;;5052501;28;20321;-66
2022/01/04 14:26:02;;;;;;;;;;;10.10;90.20;;;;;;5074494;28;19915;-67
2022/01/04 14:28:28;;;;;;;;;;;10.10;90.00;;;;;;5084596;28;19939;-66
2022/01/04 14:30:53;;;;;;;;;;;10.10;90.30;;;;;;5080975;28;20344;-67
2022/01/04 14:33:19;;;;;;;;;;;10.00;90.40;;;;;;5068406;28;19909;-67
2022/01/04 14:35:45;;;;;;;;;;;10.00;90.30;;;;;;5054579;28;19975;-66
2022/01/04 14:38:10;;;;;;;;;;;10.20;90.30;;;;;;5052941;28;19924;-68
2022/01/04 14:40:37;;;;;;;;;;;10.30;89.70;;;;;;5053292;28;19913;-68